sensor_id;sensor_type;location;lat;lon;timestamp;temperature;humidity
20174;DHT22;10246;50.620;7.232;2022-08-20T00:01:38;22.00;5.30
20174;DHT22;10246;50.620;7.232;2022-08-20T00:04:06;22.00;5.10
20174;DHT22;10246;50.620;7.232;2022-08-20T00:06:33;22.10;4.20
20174;DHT22;10246;50.620;7.232;2022-08-20T00:09:00;22.10;4.60
20174;DHT22;10246;50.620;7.232;2022-08-20T00:11:26;22.00;5.10
20174;DHT22;10246;50.620;7.232;2022-08-20T00:13:56;22.10;4.90
20174;DHT22;10246;50.620;7.232;2022-08-20T00:16:26;22.10;4.80
20174;DHT22;10246;50.620;7.232;2022-08-20T00:18:59;22.20;4.10
20174;DHT22;10246;50.620;7.232;2022-08-20T00:21:26;22.20;4.30
20174;DHT22;10246;50.620;7.232;2022-08-20T00:23:54;22.20;4.50
20174;DHT22;10246;50.620;7.232;2022-08-20T00:26:23;22.20;4.20
20174;DHT22;10246;50.620;7.232;2022-08-20T00:28:50;22.20;4.10
20174;DHT22;10246;50.620;7.232;2022-08-20T00:31:20;22.30;3.10
20174;DHT22;10246;50.620;7.232;2022-08-20T00:33:48;22.30;3.70
20174;DHT22;10246;50.620;7.232;2022-08-20T00:36:17;22.30;3.30
20174;DHT22;10246;50.620;7.232;2022-08-20T00:38:45;22.20;2.30
20174;DHT22;10246;50.620;7.232;2022-08-20T00:41:15;22.10;2.50
20174;DHT22;10246;50.620;7.232;2022-08-20T00:43:45;22.10;3.40
20174;DHT22;10246;50.620;7.232;2022-08-20T00:46:15;22.00;3.30
20174;DHT22;10246;50.620;7.232;2022-08-20T00:48:46;22.00;3.30
20174;DHT22;10246;50.620;7.232;2022-08-20T00:51:20;22.10;3.30
20174;DHT22;10246;50.620;7.232;2022-08-20T00:53:49;22.10;3.60
20174;DHT22;10246;50.620;7.232;2022-08-20T00:56:17;22.00;2.90
20174;DHT22;10246;50.620;7.232;2022-08-20T00:58:44;22.00;2.90
20174;DHT22;10246;50.620;7.232;2022-08-20T01:01:12;21.90;3.30
20174;DHT22;10246;50.620;7.232;2022-08-20T01:03:40;22.00;3.40
20174;DHT22;10246;50.620;7.232;2022-08-20T01:06:07;22.00;3.80
20174;DHT22;10246;50.620;7.232;2022-08-20T01:08:38;22.00;3.90
20174;DHT22;10246;50.620;7.232;2022-08-20T01:11:05;21.90;3.20
20174;DHT22;10246;50.620;7.232;2022-08-20T01:13:38;21.80;3.60
20174;DHT22;10246;50.620;7.232;2022-08-20T01:16:15;21.70;3.00
20174;DHT22;10246;50.620;7.232;2022-08-20T01:18:44;21.60;3.50
20174;DHT22;10246;50.620;7.232;2022-08-20T01:21:13;21.50;3.40
20174;DHT22;10246;50.620;7.232;2022-08-20T01:23:53;21.50;3.40
20174;DHT22;10246;50.620;7.232;2022-08-20T01:26:25;21.60;1.40
20174;DHT22;10246;50.620;7.232;2022-08-20T01:28:56;21.50;1.90
20174;DHT22;10246;50.620;7.232;2022-08-20T01:31:26;21.50;1.90
20174;DHT22;10246;50.620;7.232;2022-08-20T01:33:56;21.30;2.20
20174;DHT22;10246;50.620;7.232;2022-08-20T01:36:27;21.30;2.50
20174;DHT22;10246;50.620;7.232;2022-08-20T01:38:54;21.20;3.20
20174;DHT22;10246;50.620;7.232;2022-08-20T01:41:36;21.20;3.50
20174;DHT22;10246;50.620;7.232;2022-08-20T01:44:08;21.20;3.90
20174;DHT22;10246;50.620;7.232;2022-08-20T01:46:39;21.20;4.90
20174;DHT22;10246;50.620;7.232;2022-08-20T01:49:10;21.10;5.80
20174;DHT22;10246;50.620;7.232;2022-08-20T01:51:38;21.20;4.80
20174;DHT22;10246;50.620;7.232;2022-08-20T01:54:05;21.10;5.80
20174;DHT22;10246;50.620;7.232;2022-08-20T01:56:34;21.10;6.50
20174;DHT22;10246;50.620;7.232;2022-08-20T01:59:04;21.10;5.80
20174;DHT22;10246;50.620;7.232;2022-08-20T02:01:34;21.10;5.80
20174;DHT22;10246;50.620;7.232;2022-08-20T02:04:03;21.10;6.60
20174;DHT22;10246;50.620;7.232;2022-08-20T02:06:33;21.10;7.70
20174;DHT22;10246;50.620;7.232;2022-08-20T02:09:01;21.10;7.30
20174;DHT22;10246;50.620;7.232;2022-08-20T02:11:29;21.00;7.20
20174;DHT22;10246;50.620;7.232;2022-08-20T02:13:57;20.80;7.70
20174;DHT22;10246;50.620;7.232;2022-08-20T02:16:27;20.80;8.40
20174;DHT22;10246;50.620;7.232;2022-08-20T02:18:58;20.80;8.90
20174;DHT22;10246;50.620;7.232;2022-08-20T02:21:29;20.80;9.50
20174;DHT22;10246;50.620;7.232;2022-08-20T02:23:57;20.90;9.00
20174;DHT22;10246;50.620;7.232;2022-08-20T02:26:24;20.90;9.70
20174;DHT22;10246;50.620;7.232;2022-08-20T02:28:52;20.90;9.80
20174;DHT22;10246;50.620;7.232;2022-08-20T02:31:22;21.00;8.80
20174;DHT22;10246;50.620;7.232;2022-08-20T02:33:49;21.00;7.90
20174;DHT22;10246;50.620;7.232;2022-08-20T02:36:18;21.00;8.50
20174;DHT22;10246;50.620;7.232;2022-08-20T02:38:47;20.90;8.80
20174;DHT22;10246;50.620;7.232;2022-08-20T02:41:14;21.00;7.70
20174;DHT22;10246;50.620;7.232;2022-08-20T02:43:41;21.00;8.10
20174;DHT22;10246;50.620;7.232;2022-08-20T02:46:09;20.90;8.70
20174;DHT22;10246;50.620;7.232;2022-08-20T02:48:38;20.90;9.20
20174;DHT22;10246;50.620;7.232;2022-08-20T02:51:06;20.90;9.10
20174;DHT22;10246;50.620;7.232;2022-08-20T02:53:35;20.90;9.50
20174;DHT22;10246;50.620;7.232;2022-08-20T02:56:03;20.90;9.30
20174;DHT22;10246;50.620;7.232;2022-08-20T02:58:30;20.90;9.80
20174;DHT22;10246;50.620;7.232;2022-08-20T03:00:57;20.90;8.70
20174;DHT22;10246;50.620;7.232;2022-08-20T03:03:24;20.80;9.50
20174;DHT22;10246;50.620;7.232;2022-08-20T03:05:57;20.90;10.10
20174;DHT22;10246;50.620;7.232;2022-08-20T03:08:26;20.90;10.60
20174;DHT22;10246;50.620;7.232;2022-08-20T03:10:54;20.90;10.20
20174;DHT22;10246;50.620;7.232;2022-08-20T03:13:22;20.80;10.10
20174;DHT22;10246;50.620;7.232;2022-08-20T03:15:51;20.90;10.20
20174;DHT22;10246;50.620;7.232;2022-08-20T03:18:19;20.90;10.00
20174;DHT22;10246;50.620;7.232;2022-08-20T03:20:47;20.90;10.20
20174;DHT22;10246;50.620;7.232;2022-08-20T03:23:19;20.90;9.70
20174;DHT22;10246;50.620;7.232;2022-08-20T03:25:48;20.90;9.90
20174;DHT22;10246;50.620;7.232;2022-08-20T03:28:17;20.90;10.00
20174;DHT22;10246;50.620;7.232;2022-08-20T03:30:47;20.80;10.40
20174;DHT22;10246;50.620;7.232;2022-08-20T03:33:15;20.80;10.40
20174;DHT22;10246;50.620;7.232;2022-08-20T03:35:45;20.80;10.40
20174;DHT22;10246;50.620;7.232;2022-08-20T03:38:15;20.80;10.20
20174;DHT22;10246;50.620;7.232;2022-08-20T03:40:44;20.80;10.50
20174;DHT22;10246;50.620;7.232;2022-08-20T03:43:11;20.70;10.50
20174;DHT22;10246;50.620;7.232;2022-08-20T03:45:41;20.70;11.00
20174;DHT22;10246;50.620;7.232;2022-08-20T03:48:10;20.70;10.40
20174;DHT22;10246;50.620;7.232;2022-08-20T03:50:37;20.60;11.00
20174;DHT22;10246;50.620;7.232;2022-08-20T03:53:09;20.60;11.60
20174;DHT22;10246;50.620;7.232;2022-08-20T03:55:37;20.50;11.60
20174;DHT22;10246;50.620;7.232;2022-08-20T03:58:07;20.60;11.50
20174;DHT22;10246;50.620;7.232;2022-08-20T04:00:37;20.60;10.80
20174;DHT22;10246;50.620;7.232;2022-08-20T04:03:05;20.50;11.40
20174;DHT22;10246;50.620;7.232;2022-08-20T04:05:34;20.50;12.20
20174;DHT22;10246;50.620;7.232;2022-08-20T04:08:03;20.40;12.30
20174;DHT22;10246;50.620;7.232;2022-08-20T04:10:31;20.40;12.40
20174;DHT22;10246;50.620;7.232;2022-08-20T04:12:58;20.50;12.50
20174;DHT22;10246;50.620;7.232;2022-08-20T04:15:26;20.50;12.20
20174;DHT22;10246;50.620;7.232;2022-08-20T04:17:53;20.50;11.80
20174;DHT22;10246;50.620;7.232;2022-08-20T04:20:23;20.50;11.70
20174;DHT22;10246;50.620;7.232;2022-08-20T04:22:51;20.50;11.80
20174;DHT22;10246;50.620;7.232;2022-08-20T04:25:18;20.50;11.70
20174;DHT22;10246;50.620;7.232;2022-08-20T04:27:48;20.50;11.50
20174;DHT22;10246;50.620;7.232;2022-08-20T04:30:17;20.50;11.40
20174;DHT22;10246;50.620;7.232;2022-08-20T04:32:46;20.50;11.30
20174;DHT22;10246;50.620;7.232;2022-08-20T04:35:15;20.50;11.50
20174;DHT22;10246;50.620;7.232;2022-08-20T04:37:43;20.50;11.60
20174;DHT22;10246;50.620;7.232;2022-08-20T04:40:16;20.50;11.90
20174;DHT22;10246;50.620;7.232;2022-08-20T04:43:01;20.50;11.80
20174;DHT22;10246;50.620;7.232;2022-08-20T04:45:31;20.50;12.00
20174;DHT22;10246;50.620;7.232;2022-08-20T04:48:00;20.50;12.10
20174;DHT22;10246;50.620;7.232;2022-08-20T04:50:35;20.50;12.70
20174;DHT22;10246;50.620;7.232;2022-08-20T04:53:03;20.50;12.60
20174;DHT22;10246;50.620;7.232;2022-08-20T04:55:32;20.50;12.80
20174;DHT22;10246;50.620;7.232;2022-08-20T04:58:02;20.50;12.50
20174;DHT22;10246;50.620;7.232;2022-08-20T05:00:30;20.50;12.60
20174;DHT22;10246;50.620;7.232;2022-08-20T05:02:58;20.50;13.50
20174;DHT22;10246;50.620;7.232;2022-08-20T05:05:26;20.50;12.90
20174;DHT22;10246;50.620;7.232;2022-08-20T05:07:53;20.50;12.90
20174;DHT22;10246;50.620;7.232;2022-08-20T05:10:23;20.50;13.00
20174;DHT22;10246;50.620;7.232;2022-08-20T05:12:53;20.50;13.00
20174;DHT22;10246;50.620;7.232;2022-08-20T05:15:20;20.50;13.10
20174;DHT22;10246;50.620;7.232;2022-08-20T05:17:54;20.40;13.50
20174;DHT22;10246;50.620;7.232;2022-08-20T05:20:23;20.50;13.20
20174;DHT22;10246;50.620;7.232;2022-08-20T05:22:50;20.50;13.00
20174;DHT22;10246;50.620;7.232;2022-08-20T05:25:22;20.50;13.10
20174;DHT22;10246;50.620;7.232;2022-08-20T05:27:55;20.40;13.60
20174;DHT22;10246;50.620;7.232;2022-08-20T05:30:22;20.50;14.20
20174;DHT22;10246;50.620;7.232;2022-08-20T05:32:52;20.50;14.60
20174;DHT22;10246;50.620;7.232;2022-08-20T05:35:19;20.50;14.30
20174;DHT22;10246;50.620;7.232;2022-08-20T05:37:47;20.50;14.30
20174;DHT22;10246;50.620;7.232;2022-08-20T05:40:14;20.50;14.40
20174;DHT22;10246;50.620;7.232;2022-08-20T05:42:41;20.50;14.30
20174;DHT22;10246;50.620;7.232;2022-08-20T05:45:09;20.50;14.40
20174;DHT22;10246;50.620;7.232;2022-08-20T05:47:38;20.60;14.30
20174;DHT22;10246;50.620;7.232;2022-08-20T05:50:07;20.60;14.00
20174;DHT22;10246;50.620;7.232;2022-08-20T05:52:35;20.60;14.00
20174;DHT22;10246;50.620;7.232;2022-08-20T05:55:04;20.60;13.90
20174;DHT22;10246;50.620;7.232;2022-08-20T05:57:32;20.60;14.30
20174;DHT22;10246;50.620;7.232;2022-08-20T05:59:59;20.60;14.30
20174;DHT22;10246;50.620;7.232;2022-08-20T06:02:27;20.60;14.40
20174;DHT22;10246;50.620;7.232;2022-08-20T06:05:13;20.50;14.80
20174;DHT22;10246;50.620;7.232;2022-08-20T06:07:40;20.50;14.80
20174;DHT22;10246;50.620;7.232;2022-08-20T06:10:10;20.50;14.40
20174;DHT22;10246;50.620;7.232;2022-08-20T06:12:36;20.60;14.40
20174;DHT22;10246;50.620;7.232;2022-08-20T06:15:04;20.70;13.40
20174;DHT22;10246;50.620;7.232;2022-08-20T06:17:32;20.60;13.30
20174;DHT22;10246;50.620;7.232;2022-08-20T06:20:03;20.60;13.70
20174;DHT22;10246;50.620;7.232;2022-08-20T06:22:30;20.60;14.30
20174;DHT22;10246;50.620;7.232;2022-08-20T06:24:57;20.60;14.50
20174;DHT22;10246;50.620;7.232;2022-08-20T06:27:26;20.50;14.70
20174;DHT22;10246;50.620;7.232;2022-08-20T06:29:54;20.50;15.40
20174;DHT22;10246;50.620;7.232;2022-08-20T06:32:22;20.60;15.10
20174;DHT22;10246;50.620;7.232;2022-08-20T06:34:50;20.60;14.70
20174;DHT22;10246;50.620;7.232;2022-08-20T06:37:20;20.60;15.30
20174;DHT22;10246;50.620;7.232;2022-08-20T06:39:49;20.70;15.30
20174;DHT22;10246;50.620;7.232;2022-08-20T06:42:16;20.70;13.10
20174;DHT22;10246;50.620;7.232;2022-08-20T06:44:47;20.70;11.60
20174;DHT22;10246;50.620;7.232;2022-08-20T06:47:15;20.80;9.50
20174;DHT22;10246;50.620;7.232;2022-08-20T06:49:43;20.90;8.10
20174;DHT22;10246;50.620;7.232;2022-08-20T06:52:11;20.80;9.20
20174;DHT22;10246;50.620;7.232;2022-08-20T06:54:41;20.80;10.50
20174;DHT22;10246;50.620;7.232;2022-08-20T06:57:08;20.80;9.00
20174;DHT22;10246;50.620;7.232;2022-08-20T06:59:35;20.80;8.90
20174;DHT22;10246;50.620;7.232;2022-08-20T07:02:04;20.80;8.20
20174;DHT22;10246;50.620;7.232;2022-08-20T07:04:30;20.90;8.90
20174;DHT22;10246;50.620;7.232;2022-08-20T07:06:57;20.80;8.00
20174;DHT22;10246;50.620;7.232;2022-08-20T07:09:25;20.90;7.40
20174;DHT22;10246;50.620;7.232;2022-08-20T07:11:52;20.90;6.80
20174;DHT22;10246;50.620;7.232;2022-08-20T07:14:20;21.10;4.60
20174;DHT22;10246;50.620;7.232;2022-08-20T07:16:47;20.90;5.10
20174;DHT22;10246;50.620;7.232;2022-08-20T07:19:16;20.90;5.70
20174;DHT22;10246;50.620;7.232;2022-08-20T07:21:43;20.90;5.60
20174;DHT22;10246;50.620;7.232;2022-08-20T07:24:12;20.90;5.60
20174;DHT22;10246;50.620;7.232;2022-08-20T07:26:39;20.90;5.60
20174;DHT22;10246;50.620;7.232;2022-08-20T07:29:05;20.90;6.10
20174;DHT22;10246;50.620;7.232;2022-08-20T07:31:32;20.90;5.70
20174;DHT22;10246;50.620;7.232;2022-08-20T07:34:13;20.80;5.60
20174;DHT22;10246;50.620;7.232;2022-08-20T07:36:41;20.90;5.60
20174;DHT22;10246;50.620;7.232;2022-08-20T07:39:09;20.70;6.00
20174;DHT22;10246;50.620;7.232;2022-08-20T07:41:35;20.70;6.80
20174;DHT22;10246;50.620;7.232;2022-08-20T07:44:03;20.80;7.20
20174;DHT22;10246;50.620;7.232;2022-08-20T07:46:32;20.80;7.70
20174;DHT22;10246;50.620;7.232;2022-08-20T07:48:59;21.00;8.50
20174;DHT22;10246;50.620;7.232;2022-08-20T07:51:28;21.10;6.90
20174;DHT22;10246;50.620;7.232;2022-08-20T07:54:02;21.20;5.80
20174;DHT22;10246;50.620;7.232;2022-08-20T07:57:05;21.30;5.90
20174;DHT22;10246;50.620;7.232;2022-08-20T07:59:51;21.40;2.60
20174;DHT22;10246;50.620;7.232;2022-08-20T08:02:35;21.30;1.00
20174;DHT22;10246;50.620;7.232;2022-08-20T08:05:14;21.30;1.00
20174;DHT22;10246;50.620;7.232;2022-08-20T08:07:49;21.40;1.00
20174;DHT22;10246;50.620;7.232;2022-08-20T08:10:22;21.50;1.00
20174;DHT22;10246;50.620;7.232;2022-08-20T08:13:09;21.70;1.00
20174;DHT22;10246;50.620;7.232;2022-08-20T08:15:58;21.70;1.00
20174;DHT22;10246;50.620;7.232;2022-08-20T08:18:49;21.60;1.00
20174;DHT22;10246;50.620;7.232;2022-08-20T08:21:35;21.50;1.00
20174;DHT22;10246;50.620;7.232;2022-08-20T08:24:03;21.50;1.00
20174;DHT22;10246;50.620;7.232;2022-08-20T08:26:31;21.50;1.00
20174;DHT22;10246;50.620;7.232;2022-08-20T08:29:01;21.70;1.00
20174;DHT22;10246;50.620;7.232;2022-08-20T08:31:34;21.70;1.00
20174;DHT22;10246;50.620;7.232;2022-08-20T08:34:05;21.80;1.00
20174;DHT22;10246;50.620;7.232;2022-08-20T08:36:36;21.50;1.00
20174;DHT22;10246;50.620;7.232;2022-08-20T08:39:05;21.80;1.00
20174;DHT22;10246;50.620;7.232;2022-08-20T08:41:42;22.10;1.00
20174;DHT22;10246;50.620;7.232;2022-08-20T08:44:20;22.20;1.00
20174;DHT22;10246;50.620;7.232;2022-08-20T08:46:55;22.00;1.00
20174;DHT22;10246;50.620;7.232;2022-08-20T08:49:28;22.20;1.00
20174;DHT22;10246;50.620;7.232;2022-08-20T08:52:08;22.30;1.00
20174;DHT22;10246;50.620;7.232;2022-08-20T08:54:51;22.20;1.00
20174;DHT22;10246;50.620;7.232;2022-08-20T08:57:20;22.30;1.00
20174;DHT22;10246;50.620;7.232;2022-08-20T09:00:14;22.40;1.00
20174;DHT22;10246;50.620;7.232;2022-08-20T09:03:08;22.30;1.00
20174;DHT22;10246;50.620;7.232;2022-08-20T09:05:39;22.30;1.00
20174;DHT22;10246;50.620;7.232;2022-08-20T09:08:11;22.30;1.00
20174;DHT22;10246;50.620;7.232;2022-08-20T09:10:38;22.10;1.00
20174;DHT22;10246;50.620;7.232;2022-08-20T09:13:07;22.10;1.00
20174;DHT22;10246;50.620;7.232;2022-08-20T09:15:34;22.40;1.00
20174;DHT22;10246;50.620;7.232;2022-08-20T09:18:01;22.50;1.00
20174;DHT22;10246;50.620;7.232;2022-08-20T09:20:29;22.60;1.00
20174;DHT22;10246;50.620;7.232;2022-08-20T09:22:56;22.70;1.00
20174;DHT22;10246;50.620;7.232;2022-08-20T09:25:23;22.90;1.00
20174;DHT22;10246;50.620;7.232;2022-08-20T09:27:51;22.90;1.00
20174;DHT22;10246;50.620;7.232;2022-08-20T09:30:19;23.00;1.00
20174;DHT22;10246;50.620;7.232;2022-08-20T09:32:46;23.20;1.00
20174;DHT22;10246;50.620;7.232;2022-08-20T09:35:13;23.30;1.00
20174;DHT22;10246;50.620;7.232;2022-08-20T09:37:40;23.30;1.00
20174;DHT22;10246;50.620;7.232;2022-08-20T09:40:08;23.30;1.00
20174;DHT22;10246;50.620;7.232;2022-08-20T09:42:37;23.10;1.00
20174;DHT22;10246;50.620;7.232;2022-08-20T09:45:08;23.10;1.00
20174;DHT22;10246;50.620;7.232;2022-08-20T09:47:36;22.90;1.00
20174;DHT22;10246;50.620;7.232;2022-08-20T09:50:04;23.00;1.00
20174;DHT22;10246;50.620;7.232;2022-08-20T09:52:33;22.80;1.00
20174;DHT22;10246;50.620;7.232;2022-08-20T09:55:06;23.00;1.00
20174;DHT22;10246;50.620;7.232;2022-08-20T09:57:34;23.30;1.00
20174;DHT22;10246;50.620;7.232;2022-08-20T10:00:06;23.50;1.00
20174;DHT22;10246;50.620;7.232;2022-08-20T10:02:33;23.60;1.00
20174;DHT22;10246;50.620;7.232;2022-08-20T10:05:03;23.80;1.00
20174;DHT22;10246;50.620;7.232;2022-08-20T10:07:30;24.10;1.00
20174;DHT22;10246;50.620;7.232;2022-08-20T10:09:59;24.30;1.00
20174;DHT22;10246;50.620;7.232;2022-08-20T10:12:25;24.20;1.00
20174;DHT22;10246;50.620;7.232;2022-08-20T10:14:52;24.10;1.00
20174;DHT22;10246;50.620;7.232;2022-08-20T10:17:20;24.10;1.00
20174;DHT22;10246;50.620;7.232;2022-08-20T10:19:47;23.80;1.00
20174;DHT22;10246;50.620;7.232;2022-08-20T10:22:15;23.60;1.00
20174;DHT22;10246;50.620;7.232;2022-08-20T10:24:42;23.70;1.00
20174;DHT22;10246;50.620;7.232;2022-08-20T10:27:09;23.80;1.00
20174;DHT22;10246;50.620;7.232;2022-08-20T10:29:36;23.90;1.00
20174;DHT22;10246;50.620;7.232;2022-08-20T10:32:13;24.10;1.00
20174;DHT22;10246;50.620;7.232;2022-08-20T10:34:42;24.50;1.00
20174;DHT22;10246;50.620;7.232;2022-08-20T10:37:13;24.80;1.00
20174;DHT22;10246;50.620;7.232;2022-08-20T10:39:41;24.60;1.00
20174;DHT22;10246;50.620;7.232;2022-08-20T10:42:08;24.40;1.00
20174;DHT22;10246;50.620;7.232;2022-08-20T10:44:35;24.40;1.00
20174;DHT22;10246;50.620;7.232;2022-08-20T10:47:13;24.10;1.00
20174;DHT22;10246;50.620;7.232;2022-08-20T10:49:40;23.90;1.00
20174;DHT22;10246;50.620;7.232;2022-08-20T10:52:07;24.00;1.00
20174;DHT22;10246;50.620;7.232;2022-08-20T10:54:34;24.10;1.00
20174;DHT22;10246;50.620;7.232;2022-08-20T10:57:02;24.30;1.00
20174;DHT22;10246;50.620;7.232;2022-08-20T10:59:30;24.70;1.00
20174;DHT22;10246;50.620;7.232;2022-08-20T11:01:56;24.80;1.00
20174;DHT22;10246;50.620;7.232;2022-08-20T11:04:23;24.70;1.00
20174;DHT22;10246;50.620;7.232;2022-08-20T11:06:50;24.80;1.00
20174;DHT22;10246;50.620;7.232;2022-08-20T11:09:17;24.50;1.00
20174;DHT22;10246;50.620;7.232;2022-08-20T11:11:43;24.30;1.00
20174;DHT22;10246;50.620;7.232;2022-08-20T11:14:12;24.20;1.00
20174;DHT22;10246;50.620;7.232;2022-08-20T11:16:38;24.40;1.00
20174;DHT22;10246;50.620;7.232;2022-08-20T11:19:05;24.40;1.00
20174;DHT22;10246;50.620;7.232;2022-08-20T11:21:32;24.10;1.00
20174;DHT22;10246;50.620;7.232;2022-08-20T11:23:59;24.20;1.00
20174;DHT22;10246;50.620;7.232;2022-08-20T11:26:25;24.50;1.00
20174;DHT22;10246;50.620;7.232;2022-08-20T11:28:52;24.70;1.00
20174;DHT22;10246;50.620;7.232;2022-08-20T11:31:20;24.60;1.00
20174;DHT22;10246;50.620;7.232;2022-08-20T11:33:47;24.40;1.00
20174;DHT22;10246;50.620;7.232;2022-08-20T11:36:14;24.40;1.00
20174;DHT22;10246;50.620;7.232;2022-08-20T11:38:40;24.80;1.00
20174;DHT22;10246;50.620;7.232;2022-08-20T11:41:07;25.20;1.00
20174;DHT22;10246;50.620;7.232;2022-08-20T11:43:34;25.40;1.00
20174;DHT22;10246;50.620;7.232;2022-08-20T11:46:01;25.80;1.00
20174;DHT22;10246;50.620;7.232;2022-08-20T11:48:29;26.10;1.00
20174;DHT22;10246;50.620;7.232;2022-08-20T11:50:56;26.20;1.00
20174;DHT22;10246;50.620;7.232;2022-08-20T11:53:23;25.80;1.00
20174;DHT22;10246;50.620;7.232;2022-08-20T11:55:49;25.20;1.00
20174;DHT22;10246;50.620;7.232;2022-08-20T11:58:17;24.80;1.00
20174;DHT22;10246;50.620;7.232;2022-08-20T12:00:44;24.80;1.00
20174;DHT22;10246;50.620;7.232;2022-08-20T12:03:11;24.80;1.00
20174;DHT22;10246;50.620;7.232;2022-08-20T12:05:41;24.40;1.00
20174;DHT22;10246;50.620;7.232;2022-08-20T12:08:08;24.30;1.00
20174;DHT22;10246;50.620;7.232;2022-08-20T12:10:35;24.40;1.00
20174;DHT22;10246;50.620;7.232;2022-08-20T12:13:03;24.60;1.00
20174;DHT22;10246;50.620;7.232;2022-08-20T12:15:30;24.90;1.00
20174;DHT22;10246;50.620;7.232;2022-08-20T12:17:56;25.10;1.00
20174;DHT22;10246;50.620;7.232;2022-08-20T12:20:24;24.70;1.00
20174;DHT22;10246;50.620;7.232;2022-08-20T12:22:52;24.50;1.00
20174;DHT22;10246;50.620;7.232;2022-08-20T12:25:19;24.30;1.00
20174;DHT22;10246;50.620;7.232;2022-08-20T12:27:46;24.50;1.00
20174;DHT22;10246;50.620;7.232;2022-08-20T12:30:17;24.80;1.00
20174;DHT22;10246;50.620;7.232;2022-08-20T12:32:44;25.00;1.00
20174;DHT22;10246;50.620;7.232;2022-08-20T12:35:14;25.10;1.00
20174;DHT22;10246;50.620;7.232;2022-08-20T12:37:42;25.20;1.00
20174;DHT22;10246;50.620;7.232;2022-08-20T12:40:13;25.30;1.00
20174;DHT22;10246;50.620;7.232;2022-08-20T12:42:40;25.00;1.00
